Terminal Aerodrome Forecast
Issued by NWS Upton, NY

Current Version | Previous Version | Text Only | Print | Product List | Glossary On
Versions: 1 2 3 4 5 6 7 8 9 10 11 12 13 14 15 16 17 18 19 20 21 22 23 24 25 26 27 28 29 30
000
FTUS41 KOKX 161400 AAE
TAFEWR
TAF AMD
KEWR 161435Z 1615/1718 36007KT 6SM BR FEW007 BKN015 OVC040
     FM161600 32007KT P6SM FEW025 BKN040 BKN100
     FM162000 32008KT P6SM SCT050 SCT150
     FM170100 34007KT P6SM FEW050 SCT250
     FM170500 01009KT P6SM SKC
     FM171300 02005KT P6SM SKC=

USA.gov is the U.S. government's official web portal to all federal, state and local government web resources and services.